Time;durP1;ratioP1;P1;durP2;ratioP2;P2;SDS_P1;SDS_P2;PMS_P1;PMS_P2;Temp;Humidity;BMP_temperature;BMP_pressure;BME280_temperature;BME280_humidity;BME280_pressure;Samples;Min_cycle;Max_cycle;Signal;HPM_P1;HPM_P2
2020/12/18 00:02:24;;;;;;;19.05;3.22;;;7.00;99.90;;;;;;5067794;28;20017;-79
2020/12/18 00:04:50;;;;;;;5.90;3.17;;;7.00;99.90;;;;;;5067676;28;20105;-78
2020/12/18 00:07:16;;;;;;;9.73;3.88;;;7.00;99.90;;;;;;5066676;28;20032;-80
2020/12/18 00:09:42;;;;;;;10.93;4.25;;;6.90;99.90;;;;;;5067962;28;20106;-79
2020/12/18 00:12:08;;;;;;;8.25;4.32;;;6.90;99.90;;;;;;5066425;28;20031;-78
2020/12/18 00:14:34;;;;;;;6.72;4.00;;;6.70;99.90;;;;;;5066400;28;20053;-83
2020/12/18 00:16:59;;;;;;;9.52;4.43;;;6.70;99.90;;;;;;5066163;28;20560;-78
2020/12/18 00:19:25;;;;;;;9.52;3.97;;;6.60;99.90;;;;;;5066241;28;20025;-79
2020/12/18 00:21:55;;;;;;;5.57;3.30;;;6.50;99.90;;;;;;5066271;28;20107;-79
2020/12/18 00:24:21;;;;;;;6.88;3.70;;;6.30;99.90;;;;;;5066270;28;20025;-79
2020/12/18 00:26:47;;;;;;;4.63;3.03;;;6.30;99.90;;;;;;5066139;28;20025;-79
2020/12/18 00:29:12;;;;;;;6.10;3.00;;;6.30;99.90;;;;;;5066274;28;20104;-80
2020/12/18 00:31:38;;;;;;;5.45;2.75;;;6.30;99.90;;;;;;5067455;28;20021;-79
2020/12/18 00:34:03;;;;;;;5.95;3.40;;;6.30;99.90;;;;;;5065993;28;20024;-78
2020/12/18 00:36:29;;;;;;;5.18;2.95;;;6.30;99.90;;;;;;5067285;28;20029;-81
2020/12/18 00:38:54;;;;;;;8.02;3.40;;;6.30;99.90;;;;;;5067264;28;20077;-78
2020/12/18 00:41:20;;;;;;;10.80;3.05;;;6.30;99.90;;;;;;5065725;28;20021;-80
2020/12/18 00:43:46;;;;;;;5.13;2.78;;;6.30;99.90;;;;;;5067292;28;20029;-80
2020/12/18 00:46:12;;;;;;;6.20;3.35;;;6.30;99.90;;;;;;5066145;28;20025;-80
2020/12/18 00:48:37;;;;;;;8.10;2.63;;;6.30;99.90;;;;;;5065576;28;20021;-79
2020/12/18 00:51:03;;;;;;;9.30;3.33;;;6.40;99.90;;;;;;5065750;28;20020;-81
2020/12/18 00:53:29;;;;;;;8.43;3.08;;;6.20;99.90;;;;;;5065581;28;20045;-79
2020/12/18 00:55:55;;;;;;;7.07;3.22;;;6.20;99.90;;;;;;5065606;28;20029;-80
2020/12/18 00:58:20;;;;;;;7.72;2.75;;;6.20;99.90;;;;;;5065589;28;20531;-80
2020/12/18 01:00:46;;;;;;;5.22;2.72;;;6.10;99.90;;;;;;5065890;28;20025;-79
2020/12/18 01:03:12;;;;;;;7.05;2.65;;;6.20;99.90;;;;;;5065788;28;20444;-79
2020/12/18 01:05:38;;;;;;;5.63;2.92;;;6.00;99.90;;;;;;5065154;28;20033;-79
2020/12/18 01:08:03;;;;;;;7.68;2.75;;;6.10;99.90;;;;;;5064520;28;20043;-77
2020/12/18 01:10:29;;;;;;;9.10;2.95;;;6.00;99.90;;;;;;5065220;28;20096;-79
2020/12/18 01:12:54;;;;;;;9.73;3.00;;;6.00;99.90;;;;;;5066532;28;20029;-78
2020/12/18 01:15:20;;;;;;;6.70;3.42;;;5.90;99.90;;;;;;5066725;28;20040;-79
2020/12/18 01:17:46;;;;;;;10.45;3.65;;;5.90;99.90;;;;;;5065280;28;20216;-78
2020/12/18 01:20:11;;;;;;;7.53;3.15;;;5.80;99.90;;;;;;5065438;28;20021;-79
2020/12/18 01:22:37;;;;;;;5.20;2.85;;;5.80;99.90;;;;;;5065187;28;20048;-78
2020/12/18 01:25:03;;;;;;;4.18;2.63;;;5.90;99.90;;;;;;5066330;28;20024;-81
2020/12/18 01:27:28;;;;;;;6.53;3.33;;;5.70;99.90;;;;;;5066619;28;20023;-79
2020/12/18 01:29:54;;;;;;;5.95;3.05;;;5.80;99.90;;;;;;5065067;28;20063;-80
2020/12/18 01:32:19;;;;;;;5.35;2.80;;;5.70;99.90;;;;;;5064709;28;20477;-82
2020/12/18 01:34:46;;;;;;;17.52;3.88;;;5.80;99.90;;;;;;5066406;28;20025;-79
2020/12/18 01:37:12;;;;;;;5.05;2.95;;;5.80;99.90;;;;;;5066702;28;20036;-79
2020/12/18 01:39:39;;;;;;;8.68;3.50;;;5.70;99.90;;;;;;5064873;28;20035;-78
2020/12/18 01:42:05;;;;;;;4.85;3.10;;;5.70;99.90;;;;;;5065038;28;20501;-80
2020/12/18 01:44:31;;;;;;;6.55;3.10;;;5.80;99.90;;;;;;5065789;28;20051;-81
2020/12/18 01:46:57;;;;;;;5.03;2.85;;;5.80;99.90;;;;;;5065739;28;20025;-80
2020/12/18 01:49:23;;;;;;;7.47;2.78;;;5.80;99.90;;;;;;5064637;28;20021;-79
2020/12/18 01:51:50;;;;;;;6.32;3.22;;;5.80;99.90;;;;;;5064735;28;20023;-80
2020/12/18 01:54:18;;;;;;;6.68;3.78;;;5.80;99.90;;;;;;5066059;28;20017;-81
2020/12/18 01:56:44;;;;;;;9.18;3.08;;;5.70;99.90;;;;;;5064867;28;20037;-78
2020/12/18 01:59:10;;;;;;;5.00;2.63;;;5.70;99.90;;;;;;5065874;28;20021;-79
2020/12/18 02:01:35;;;;;;;13.55;3.42;;;5.70;99.90;;;;;;5064122;28;20028;-79
2020/12/18 02:04:02;;;;;;;4.97;2.35;;;5.70;99.90;;;;;;5063869;28;20036;-78
2020/12/18 02:06:29;;;;;;;8.57;3.72;;;5.70;99.90;;;;;;5064414;28;20086;-79
2020/12/18 02:08:55;;;;;;;4.32;2.15;;;5.70;99.90;;;;;;5064237;28;20040;-78
2020/12/18 02:11:22;;;;;;;5.28;2.67;;;5.80;99.90;;;;;;5064043;28;20027;-78
2020/12/18 02:13:53;;;;;;;8.52;3.22;;;5.70;99.90;;;;;;5065318;28;20028;-81
2020/12/18 02:16:19;;;;;;;3.88;2.50;;;5.70;99.90;;;;;;5065489;28;20017;-79
2020/12/18 02:18:48;;;;;;;8.70;3.05;;;5.70;99.90;;;;;;5064094;28;20031;-78
2020/12/18 02:21:15;;;;;;;4.30;2.97;;;5.70;99.90;;;;;;5064452;28;20426;-78
2020/12/18 02:23:41;;;;;;;4.78;2.35;;;5.60;99.90;;;;;;5064061;28;20017;-80
2020/12/18 02:26:09;;;;;;;5.68;3.13;;;5.70;99.90;;;;;;5063818;28;20056;-77
2020/12/18 02:28:39;;;;;;;3.83;2.55;;;5.70;99.90;;;;;;5064112;28;20204;-79
2020/12/18 02:31:05;;;;;;;6.07;3.15;;;5.70;99.90;;;;;;5065104;28;20029;-79
2020/12/18 02:33:31;;;;;;;7.47;2.42;;;5.70;99.90;;;;;;5065194;28;20397;-77
2020/12/18 02:36:01;;;;;;;3.63;2.28;;;5.70;99.90;;;;;;5065105;28;20121;-79
2020/12/18 02:38:27;;;;;;;6.00;2.83;;;5.70;99.90;;;;;;5063761;28;20053;-79
2020/12/18 02:40:57;;;;;;;4.70;3.15;;;5.80;99.90;;;;;;5063736;28;20051;-80
2020/12/18 02:43:23;;;;;;;6.20;2.38;;;5.70;99.90;;;;;;5063573;28;20025;-79
2020/12/18 02:45:49;;;;;;;5.40;2.70;;;5.70;99.90;;;;;;5063583;28;20024;-78
2020/12/18 02:48:16;;;;;;;5.18;2.60;;;5.60;99.90;;;;;;5063725;28;20016;-79
2020/12/18 02:50:42;;;;;;;6.15;3.17;;;5.60;99.90;;;;;;5063533;28;20054;-79
2020/12/18 02:53:16;;;;;;;5.25;3.35;;;5.60;99.90;;;;;;5063446;28;20025;-79
2020/12/18 02:55:42;;;;;;;;;;;5.60;99.90;;;;;;5064182;28;20025;-78
2020/12/18 02:58:09;;;;;;;5.53;2.92;;;5.50;99.90;;;;;;5064691;28;19913;-78
2020/12/18 03:00:36;;;;;;;8.02;2.58;;;5.50;99.90;;;;;;5062996;28;20311;-79
2020/12/18 03:03:03;;;;;;;13.38;3.55;;;5.60;99.90;;;;;;5063302;28;20025;-80
2020/12/18 03:05:29;;;;;;;7.10;3.33;;;5.60;99.90;;;;;;5062953;28;20412;-77
2020/12/18 03:07:55;;;;;;;6.30;3.53;;;5.60;99.90;;;;;;5064954;28;20029;-80
2020/12/18 03:10:20;;;;;;;9.23;3.83;;;5.60;99.90;;;;;;5063309;28;20020;-78
2020/12/18 03:12:46;;;;;;;7.45;3.95;;;5.60;99.90;;;;;;5063783;28;20036;-78
2020/12/18 03:15:12;;;;;;;11.00;3.53;;;5.60;99.90;;;;;;5063186;28;20031;-78
2020/12/18 03:17:37;;;;;;;12.18;3.03;;;5.60;99.90;;;;;;5064267;28;20040;-80
2020/12/18 03:20:04;;;;;;;9.30;3.55;;;5.60;99.90;;;;;;5064612;28;20024;-78
2020/12/18 03:22:31;;;;;;;11.52;3.85;;;5.60;99.90;;;;;;5064355;28;20017;-77
2020/12/18 03:24:57;;;;;;;6.68;3.67;;;5.60;99.90;;;;;;5063036;28;20025;-77
2020/12/18 03:27:23;;;;;;;5.95;3.25;;;5.60;99.90;;;;;;5063205;28;20027;-82
2020/12/18 03:29:48;;;;;;;8.45;3.53;;;5.60;99.90;;;;;;5065469;28;20441;-79
2020/12/18 03:32:14;;;;;;;5.82;3.42;;;5.60;99.90;;;;;;5068791;28;20021;-77
2020/12/18 03:34:40;;;;;;;7.15;3.75;;;5.60;99.90;;;;;;5067239;28;20060;-78
2020/12/18 03:37:05;;;;;;;10.35;3.85;;;5.60;99.90;;;;;;5068396;28;20032;-80
2020/12/18 03:39:31;;;;;;;6.28;3.70;;;5.60;99.90;;;;;;5068299;28;20032;-78
2020/12/18 03:41:56;;;;;;;9.57;5.10;;;5.60;99.90;;;;;;5068376;28;20108;-78
2020/12/18 03:44:22;;;;;;;7.85;3.78;;;5.60;99.90;;;;;;5068345;28;20025;-78
2020/12/18 03:46:47;;;;;;;5.35;3.45;;;5.60;99.90;;;;;;5066927;28;20113;-80
2020/12/18 03:49:13;;;;;;;8.35;4.00;;;5.60;99.90;;;;;;5066977;28;20476;-78
2020/12/18 03:51:38;;;;;;;11.45;5.07;;;5.60;99.90;;;;;;5068018;28;20025;-78
2020/12/18 03:54:04;;;;;;;12.00;4.68;;;5.60;99.90;;;;;;5066941;28;20155;-80
2020/12/18 03:56:29;;;;;;;8.65;4.70;;;5.60;99.90;;;;;;5066713;28;20028;-79
2020/12/18 03:58:55;;;;;;;7.10;4.10;;;5.50;99.90;;;;;;5067798;28;20075;-80
2020/12/18 04:01:21;;;;;;;5.78;3.75;;;5.50;99.90;;;;;;5066993;28;20025;-79
2020/12/18 04:03:46;;;;;;;7.25;4.70;;;5.50;99.90;;;;;;5068029;28;20032;-81
2020/12/18 04:06:12;;;;;;;9.45;4.18;;;5.50;99.90;;;;;;5068419;28;20070;-78
2020/12/18 04:08:37;;;;;;;5.50;3.80;;;5.50;99.90;;;;;;5066506;28;20028;-77
2020/12/18 04:11:03;;;;;;;7.07;3.83;;;5.40;99.90;;;;;;5066502;28;20040;-78
2020/12/18 04:13:28;;;;;;;8.93;3.58;;;5.40;99.90;;;;;;5066442;28;20047;-77
2020/12/18 04:15:54;;;;;;;7.50;4.18;;;5.30;99.90;;;;;;5067511;28;20396;-77
2020/12/18 04:18:19;;;;;;;10.93;4.07;;;5.30;99.90;;;;;;5066336;28;20036;-79
2020/12/18 04:20:45;;;;;;;9.35;4.68;;;5.20;99.90;;;;;;5067985;28;20040;-81
2020/12/18 04:23:11;;;;;;;9.27;4.93;;;5.20;99.90;;;;;;5066438;28;20025;-77
2020/12/18 04:25:36;;;;;;;7.50;4.20;;;5.20;99.90;;;;;;5066313;28;20486;-78
2020/12/18 04:28:02;;;;;;;9.98;4.82;;;5.10;99.90;;;;;;5067525;28;20051;-78
2020/12/18 04:30:28;;;;;;;5.95;4.20;;;5.10;99.90;;;;;;5065988;28;20021;-78
2020/12/18 04:32:54;;;;;;;7.15;3.95;;;5.10;99.90;;;;;;5066073;28;20021;-79
2020/12/18 04:35:19;;;;;;;13.63;4.05;;;5.10;99.90;;;;;;5065998;28;20027;-79
2020/12/18 04:37:45;;;;;;;6.40;3.85;;;5.00;99.90;;;;;;5066101;28;20024;-80
2020/12/18 04:40:12;;;;;;;9.77;5.20;;;5.10;99.90;;;;;;5066009;28;20028;-79
2020/12/18 04:42:38;;;;;;;10.88;5.25;;;5.00;99.90;;;;;;5066255;28;20412;-78
2020/12/18 04:45:04;;;;;;;10.38;4.72;;;5.00;99.90;;;;;;5067257;28;20071;-78
2020/12/18 04:47:36;;;;;;;11.80;4.88;;;5.00;99.90;;;;;;5066922;28;20028;-77
2020/12/18 04:50:02;;;;;;;9.05;5.00;;;5.00;99.90;;;;;;5065691;28;20032;-77
2020/12/18 04:52:29;;;;;;;13.35;5.32;;;5.00;99.90;;;;;;5065790;28;20130;-78
2020/12/18 04:54:59;;;;;;;10.15;5.50;;;5.00;99.90;;;;;;5065657;28;20025;-78
2020/12/18 04:57:28;;;;;;;14.15;5.10;;;5.00;99.90;;;;;;5065662;28;20044;-79
2020/12/18 04:59:54;;;;;;;11.05;5.38;;;5.00;99.90;;;;;;5066550;28;20108;-77
2020/12/18 05:02:23;;;;;;;14.90;4.47;;;5.00;99.90;;;;;;5065568;28;20021;-78
2020/12/18 05:04:48;;;;;;;17.27;5.55;;;5.00;99.90;;;;;;5065224;28;20049;-78
2020/12/18 05:07:14;;;;;;;12.30;5.75;;;5.00;99.90;;;;;;5065620;28;20116;-79
2020/12/18 05:09:41;;;;;;;9.57;5.60;;;5.00;99.90;;;;;;5065473;28;20025;-78
2020/12/18 05:12:08;;;;;;;30.13;5.22;;;5.00;99.90;;;;;;5065374;28;20057;-78
2020/12/18 05:14:35;;;;;;;10.52;5.35;;;4.90;99.90;;;;;;5065376;28;20457;-78
2020/12/18 05:17:08;;;;;;;7.80;4.93;;;4.90;99.90;;;;;;5066543;28;20093;-80
2020/12/18 05:19:36;;;;;;;8.37;4.27;;;4.90;99.90;;;;;;5065454;28;20021;-78
2020/12/18 05:22:07;;;;;;;6.82;4.05;;;4.90;99.90;;;;;;5065167;28;20732;-78
2020/12/18 05:24:34;;;;;;;9.98;5.43;;;4.90;99.90;;;;;;5065097;28;20017;-80
2020/12/18 05:27:00;;;;;;;11.45;4.85;;;4.90;99.90;;;;;;5065077;28;20071;-78
2020/12/18 05:29:27;;;;;;;10.35;5.03;;;4.90;99.90;;;;;;5064870;28;20109;-77
2020/12/18 05:31:55;;;;;;;10.23;5.90;;;4.90;99.90;;;;;;5064803;28;20085;-76
2020/12/18 05:34:21;;;;;;;13.65;4.43;;;4.80;99.90;;;;;;5064606;28;20384;-82
2020/12/18 05:36:47;;;;;;;9.30;5.07;;;4.80;99.90;;;;;;5064778;28;20033;-82
2020/12/18 05:39:13;;;;;;;9.10;5.10;;;4.80;99.90;;;;;;5064990;28;20047;-78
2020/12/18 05:41:42;;;;;;;13.13;6.32;;;4.80;99.90;;;;;;5064889;28;20055;-79
2020/12/18 05:44:08;;;;;;;10.35;5.60;;;4.80;99.90;;;;;;5065988;28;20025;-78
2020/12/18 05:46:34;;;;;;;15.90;6.60;;;4.80;99.90;;;;;;5064404;28;20036;-76
2020/12/18 05:49:04;;;;;;;13.23;5.82;;;4.80;99.90;;;;;;5064704;28;20080;-80
2020/12/18 05:51:33;;;;;;;9.68;5.50;;;4.80;99.90;;;;;;5064528;28;20021;-79
2020/12/18 05:54:08;;;;;;;12.55;5.85;;;4.80;99.90;;;;;;5065828;28;20017;-78
2020/12/18 05:56:34;;;;;;;11.77;6.47;;;4.80;99.90;;;;;;5064358;28;20090;-78
2020/12/18 05:59:14;;;;;;;13.85;5.38;;;4.80;99.90;;;;;;5065736;28;20025;-79
2020/12/18 06:01:49;;;;;;;10.23;5.72;;;4.80;99.90;;;;;;5064443;28;20182;-78
2020/12/18 06:04:22;;;;;;;9.88;5.43;;;4.80;99.90;;;;;;5064176;28;20049;-83
2020/12/18 06:06:52;;;;;;;13.38;5.22;;;4.80;99.90;;;;;;5064773;28;20029;-83
2020/12/18 06:09:23;;;;;;;11.77;6.47;;;4.80;99.90;;;;;;5064348;28;20033;-84
2020/12/18 06:11:49;;;;;;;12.98;6.13;;;4.80;99.90;;;;;;5064418;28;20500;-82
2020/12/18 06:14:17;;;;;;;10.20;5.93;;;4.80;99.90;;;;;;5064508;28;20032;-82
2020/12/18 06:16:48;;;;;;;11.07;5.03;;;4.80;99.90;;;;;;5064243;28;20033;-82
2020/12/18 06:19:16;;;;;;;24.45;6.32;;;4.90;99.90;;;;;;5065681;28;20047;-81
2020/12/18 06:21:57;;;;;;;12.68;7.35;;;4.90;99.90;;;;;;5064108;28;20385;-83
2020/12/18 06:24:23;;;;;;;8.82;5.75;;;4.80;99.90;;;;;;5065418;28;20017;-83
2020/12/18 06:26:54;;;;;;;11.05;6.07;;;4.80;99.90;;;;;;5064171;28;20017;-82
2020/12/18 06:29:24;;;;;;;13.35;6.78;;;4.80;99.90;;;;;;5064003;28;20021;-83
2020/12/18 06:31:50;;;;;;;13.88;6.18;;;4.80;99.90;;;;;;5064078;28;20052;-81
2020/12/18 06:34:24;;;;;;;10.95;5.55;;;4.70;99.90;;;;;;5063941;28;20021;-84
2020/12/18 06:36:51;;;;;;;8.88;5.28;;;4.70;99.90;;;;;;5064071;28;20037;-83
2020/12/18 06:39:35;;;;;;;10.20;5.97;;;4.70;99.90;;;;;;5064095;28;20184;-82
2020/12/18 06:42:19;;;;;;;8.60;5.32;;;4.80;99.90;;;;;;5063973;28;20024;-82
2020/12/18 06:44:53;;;;;;;9.00;4.45;;;4.60;99.90;;;;;;5064008;28;20136;-83
2020/12/18 06:47:25;;;;;;;17.75;6.90;;;4.60;99.90;;;;;;5063703;28;20031;-83
2020/12/18 06:49:59;;;;;;;18.55;7.57;;;4.60;99.90;;;;;;5063894;28;20021;-84
2020/12/18 06:52:45;;;;;;;12.43;7.22;;;4.60;99.90;;;;;;5065430;28;20087;-83
2020/12/18 06:55:24;;;;;;;16.77;5.65;;;4.50;99.90;;;;;;5063376;28;20028;-81
2020/12/18 07:00:35;;;;;;;9.13;5.45;;;4.50;99.90;;;;;;5064122;28;20036;-80
2020/12/18 07:03:01;;;;;;;12.48;6.68;;;4.50;99.90;;;;;;5064299;28;20021;-80
2020/12/18 07:05:30;;;;;;;9.98;5.25;;;4.50;99.90;;;;;;5062489;28;20055;-81
2020/12/18 07:07:58;;;;;;;6.93;4.53;;;4.50;99.90;;;;;;5063014;28;20021;-80
2020/12/18 07:10:50;;;;;;;18.30;6.97;;;4.50;99.90;;;;;;5062897;28;20017;-81
2020/12/18 07:13:18;;;;;;;9.13;5.43;;;4.50;99.90;;;;;;5064003;28;20067;-80
2020/12/18 07:15:44;;;;;;;13.40;6.50;;;4.50;99.90;;;;;;5064285;28;20029;-80
2020/12/18 07:18:23;;;;;;;11.45;5.55;;;4.40;99.90;;;;;;5062313;28;20033;-79
2020/12/18 07:21:00;;;;;;;12.65;6.82;;;4.40;99.90;;;;;;5063033;28;20027;-81
2020/12/18 07:23:27;;;;;;;10.85;5.88;;;4.40;99.90;;;;;;5062087;28;20028;-82
2020/12/18 07:25:55;;;;;;;9.82;5.63;;;4.40;99.90;;;;;;5062178;28;20040;-82
2020/12/18 07:28:22;;;;;;;8.63;5.63;;;4.40;99.90;;;;;;5062987;28;20017;-81
2020/12/18 07:30:49;;;;;;;10.02;5.03;;;4.40;99.90;;;;;;5064268;28;20021;-80
2020/12/18 07:33:16;;;;;;;13.07;6.43;;;4.40;99.90;;;;;;5062587;28;20021;-81
2020/12/18 07:35:44;;;;;;;12.15;6.13;;;4.30;99.90;;;;;;5064151;28;20065;-82
2020/12/18 07:38:14;;;;;;;10.50;5.75;;;4.30;99.90;;;;;;5062893;28;20389;-81
2020/12/18 07:40:41;;;;;;;12.25;5.38;;;4.30;99.90;;;;;;5062752;28;20070;-83
2020/12/18 07:43:08;;;;;;;9.32;4.80;;;4.30;99.90;;;;;;5062904;28;20039;-83
2020/12/18 07:45:39;;;;;;;16.73;6.43;;;4.30;99.90;;;;;;5064016;28;20505;-81
2020/12/18 07:48:17;;;;;;;12.23;4.85;;;4.30;99.90;;;;;;5064055;28;20469;-82
2020/12/18 07:50:59;;;;;;;13.02;5.20;;;4.30;99.90;;;;;;5063108;28;20025;-82
2020/12/18 07:53:26;;;;;;;18.33;5.55;;;4.40;99.90;;;;;;5062680;28;20210;-82
2020/12/18 07:56:16;;;;;;;9.07;5.15;;;4.40;99.90;;;;;;5062646;28;20035;-82
2020/12/18 07:59:03;;;;;;;8.18;5.00;;;4.40;99.90;;;;;;5062942;28;20420;-83
2020/12/18 08:01:31;;;;;;;12.70;4.45;;;4.40;99.90;;;;;;5062569;28;20025;-81
2020/12/18 08:04:01;;;;;;;15.23;5.75;;;4.40;99.90;;;;;;5062486;28;20056;-83
2020/12/18 08:06:32;;;;;;;7.93;3.92;;;4.50;99.90;;;;;;5063014;28;20051;-84
2020/12/18 08:09:00;;;;;;;11.18;3.65;;;4.50;99.90;;;;;;5063035;28;20028;-82
2020/12/18 08:11:28;;;;;;;7.72;4.28;;;4.60;99.90;;;;;;5062924;28;20025;-86
2020/12/18 08:13:56;;;;;;;9.52;4.93;;;4.70;99.90;;;;;;5062935;28;20044;-84
2020/12/18 08:16:24;;;;;;;7.97;4.32;;;4.80;99.90;;;;;;5064225;28;20013;-83
2020/12/18 08:18:52;;;;;;;6.22;3.90;;;5.00;99.90;;;;;;5065928;28;20081;-83
2020/12/18 08:21:26;;;;;;;6.70;3.25;;;5.10;99.90;;;;;;5066000;28;20017;-85
2020/12/18 08:24:19;;;;;;;8.60;3.75;;;5.20;99.90;;;;;;5066503;28;20070;-82
2020/12/18 08:27:02;;;;;;;8.98;4.10;;;5.30;99.90;;;;;;5065799;28;20043;-80
2020/12/18 08:29:31;;;;;;;7.38;4.00;;;5.60;99.90;;;;;;5066520;28;20017;-81
2020/12/18 08:31:58;;;;;;;9.50;3.92;;;5.90;99.90;;;;;;5070410;28;20040;-83
2020/12/18 08:34:29;;;;;;;7.22;3.95;;;6.30;99.90;;;;;;5072859;28;20024;-82
2020/12/18 08:36:55;;;;;;;3.95;2.63;;;6.50;99.90;;;;;;5073068;28;20056;-84
2020/12/18 08:39:21;;;;;;;4.93;3.15;;;6.70;99.90;;;;;;5071102;28;20017;-83
2020/12/18 08:41:51;;;;;;;9.60;3.70;;;6.90;99.90;;;;;;5069664;28;20078;-82
2020/12/18 08:44:22;;;;;;;4.43;2.28;;;6.90;99.90;;;;;;5073038;28;20074;-80
2020/12/18 08:46:54;;;;;;;4.68;2.80;;;6.90;99.90;;;;;;5070007;28;20070;-84
2020/12/18 08:49:27;;;;;;;4.22;2.53;;;7.00;99.90;;;;;;5067531;28;20096;-85
2020/12/18 08:52:04;;;;;;;4.45;1.98;;;7.00;99.90;;;;;;5066308;28;20021;-85
2020/12/18 08:54:33;;;;;;;6.13;2.47;;;7.20;99.90;;;;;;5066098;28;20025;-82
2020/12/18 08:57:27;;;;;;;3.70;2.33;;;7.30;99.90;;;;;;5065792;28;20060;-78
2020/12/18 09:00:09;;;;;;;2.97;2.15;;;7.60;99.90;;;;;;5065531;28;20025;-83
2020/12/18 09:02:48;;;;;;;7.50;2.38;;;7.90;99.90;;;;;;5065806;28;20369;-83
2020/12/18 09:05:23;;;;;;;4.40;2.13;;;7.90;99.90;;;;;;5065397;28;20045;-83
2020/12/18 09:08:23;;;;;;;5.68;1.75;;;8.10;99.90;;;;;;5066429;28;20353;-80
2020/12/18 09:10:59;;;;;;;3.15;1.92;;;8.20;99.90;;;;;;5065734;28;20091;-80
2020/12/18 09:13:28;;;;;;;3.90;2.20;;;8.10;99.90;;;;;;5067072;28;20032;-80
2020/12/18 09:16:07;;;;;;;4.28;1.88;;;8.10;99.90;;;;;;5065417;28;20121;-78
2020/12/18 09:18:35;;;;;;;3.22;1.83;;;8.30;99.90;;;;;;5064437;28;20025;-78
2020/12/18 09:21:12;;;;;;;6.15;2.25;;;8.30;99.90;;;;;;5064704;28;20084;-79
2020/12/18 09:23:40;;;;;;;2.50;1.50;;;8.30;99.90;;;;;;5065808;28;20021;-81
2020/12/18 09:26:06;;;;;;;5.93;1.95;;;8.20;99.90;;;;;;5064970;28;20021;-80
2020/12/18 09:28:41;;;;;;;7.90;1.88;;;8.30;99.90;;;;;;5064740;28;20048;-81
2020/12/18 09:31:10;;;;;;;9.18;2.13;;;8.30;99.90;;;;;;5064769;28;20060;-82
2020/12/18 09:33:37;;;;;;;4.18;1.70;;;8.50;99.90;;;;;;5064890;28;20060;-81
2020/12/18 09:36:07;;;;;;;7.47;2.35;;;8.60;99.90;;;;;;5065029;28;20021;-82
2020/12/18 09:38:42;;;;;;;7.15;2.03;;;8.60;99.90;;;;;;5064964;28;20033;-83
2020/12/18 09:41:10;;;;;;;2.03;1.33;;;8.80;99.90;;;;;;5064954;28;20029;-81
2020/12/18 09:43:36;;;;;;;3.42;2.10;;;9.00;99.90;;;;;;5066244;28;20025;-83
2020/12/18 09:46:02;;;;;;;3.20;1.90;;;9.30;99.90;;;;;;5066295;28;20512;-82
2020/12/18 09:48:28;;;;;;;2.17;1.42;;;9.60;99.90;;;;;;5064866;28;20025;-80
2020/12/18 09:50:55;;;;;;;2.08;1.10;;;9.80;99.90;;;;;;5065545;28;20025;-81
2020/12/18 09:53:23;;;;;;;3.90;1.40;;;10.20;99.90;;;;;;5065238;28;20028;-81
2020/12/18 09:55:49;;;;;;;3.78;1.45;;;10.60;99.90;;;;;;5065402;28;20028;-80
2020/12/18 09:58:16;;;;;;;7.43;1.30;;;10.80;99.90;;;;;;5066447;28;20112;-80
2020/12/18 10:00:42;;;;;;;4.72;2.08;;;11.00;99.90;;;;;;5064663;28;20043;-78
2020/12/18 10:03:07;;;;;;;2.45;1.42;;;11.10;99.90;;;;;;5064643;28;20017;-80
2020/12/18 10:05:33;;;;;;;6.28;1.70;;;11.20;99.90;;;;;;5064743;28;20104;-79
2020/12/18 10:07:58;;;;;;;3.25;1.30;;;11.30;99.90;;;;;;5064737;28;20028;-80
2020/12/18 10:10:26;;;;;;;4.20;1.50;;;11.50;99.90;;;;;;5064558;28;20052;-79
2020/12/18 10:12:54;;;;;;;3.55;1.63;;;11.70;99.90;;;;;;5064437;28;20017;-79
2020/12/18 10:15:23;;;;;;;2.15;1.30;;;11.90;99.90;;;;;;5064347;28;20017;-80
2020/12/18 10:17:49;;;;;;;1.60;1.23;;;12.00;99.90;;;;;;5063975;28;20033;-81
2020/12/18 10:20:15;;;;;;;9.15;1.65;;;12.10;99.90;;;;;;5064485;28;20159;-78
2020/12/18 10:22:41;;;;;;;4.25;1.70;;;12.20;99.90;;;;;;5063969;28;20021;-79
2020/12/18 10:25:07;;;;;;;4.15;1.67;;;12.20;99.90;;;;;;5064039;28;20059;-79
2020/12/18 10:27:33;;;;;;;3.10;1.63;;;12.10;99.90;;;;;;5065230;28;20037;-81
2020/12/18 10:29:59;;;;;;;5.63;2.08;;;12.00;99.90;;;;;;5064089;28;20021;-81
2020/12/18 10:32:28;;;;;;;2.45;1.63;;;12.10;99.90;;;;;;5066335;28;20047;-78
2020/12/18 10:34:55;;;;;;;1.50;0.90;;;12.30;99.90;;;;;;5064749;28;20013;-79
2020/12/18 10:37:22;;;;;;;1.00;0.90;;;12.50;99.90;;;;;;5063301;28;20032;-82
2020/12/18 10:39:51;;;;;;;2.83;1.65;;;12.70;99.90;;;;;;5062806;28;20021;-79
2020/12/18 10:42:18;;;;;;;2.90;1.52;;;12.80;99.90;;;;;;5064275;28;20043;-82
2020/12/18 10:44:44;;;;;;;5.10;1.85;;;;;;;;;;5064358;28;20028;-80
2020/12/18 10:47:10;;;;;;;2.85;1.45;;;;;;;;;;5063222;28;20489;-79
2020/12/18 10:49:36;;;;;;;2.10;1.10;;;;;;;;;;5064130;28;20025;-79
2020/12/18 10:52:02;;;;;;;2.63;1.63;;;;;;;;;;5064620;28;20025;-82
2020/12/18 10:54:28;;;;;;;4.47;1.70;;;;;;;;;;5064838;28;20055;-79
2020/12/18 10:56:58;;;;;;;4.80;1.60;;;;;;;;;;5063556;28;20036;-80
2020/12/18 10:59:27;;;;;;;3.75;1.55;;;;;;;;;;5064491;28;20028;-80
2020/12/18 11:01:53;;;;;;;5.90;2.03;;;12.90;99.90;;;;;;5064211;28;20009;-80
2020/12/18 11:04:19;;;;;;;3.50;1.52;;;13.00;99.90;;;;;;5063322;28;20067;-79
2020/12/18 11:06:51;;;;;;;3.13;1.42;;;12.50;99.90;;;;;;5064686;28;20016;-80
2020/12/18 11:09:20;;;;;;;4.35;1.83;;;12.40;99.90;;;;;;5063535;28;20051;-81
2020/12/18 11:11:51;;;;;;;4.00;1.30;;;12.40;99.90;;;;;;5064588;28;20029;-80
2020/12/18 11:14:19;;;;;;;2.05;1.30;;;12.30;99.90;;;;;;5063617;28;20024;-81
2020/12/18 11:16:48;;;;;;;1.85;1.23;;;12.30;99.90;;;;;;5063230;28;20060;-80
2020/12/18 11:19:14;;;;;;;2.08;1.42;;;12.50;99.90;;;;;;5063423;28;20021;-80
2020/12/18 11:21:43;;;;;;;4.10;1.90;;;12.60;99.90;;;;;;5064658;28;20043;-80
2020/12/18 11:24:09;;;;;;;2.33;1.35;;;13.10;99.90;;;;;;5063320;28;20020;-80
2020/12/18 11:26:35;;;;;;;1.45;1.13;;;;;;;;;;5063213;28;20793;-81
2020/12/18 11:29:01;;;;;;;3.72;0.95;;;13.30;99.90;;;;;;5063044;28;20032;-80
2020/12/18 11:31:26;;;;;;;1.55;0.93;;;13.90;99.90;;;;;;5062813;28;20043;-80
2020/12/18 11:33:52;;;;;;;3.08;1.00;;;13.70;99.90;;;;;;5062460;28;20024;-80
2020/12/18 11:36:19;;;;;;;2.15;1.20;;;13.10;99.90;;;;;;5064460;28;20021;-80
2020/12/18 11:38:45;;;;;;;1.80;1.17;;;12.50;99.90;;;;;;5063210;28;20124;-80
2020/12/18 11:41:10;;;;;;;2.10;1.08;;;12.20;99.90;;;;;;5062558;28;20028;-80
2020/12/18 11:43:36;;;;;;;3.10;1.23;;;12.50;99.90;;;;;;5064048;28;20021;-79
2020/12/18 11:46:02;;;;;;;3.35;1.45;;;13.00;99.90;;;;;;5064173;28;20445;-79
2020/12/18 11:48:29;;;;;;;7.25;1.15;;;13.60;99.90;;;;;;5064081;28;20021;-80
2020/12/18 11:50:56;;;;;;;6.75;1.10;;;14.00;99.90;;;;;;5065562;28;20021;-79
2020/12/18 11:53:22;;;;;;;1.75;0.82;;;14.40;99.90;;;;;;5066865;28;20028;-79
2020/12/18 11:55:48;;;;;;;1.15;0.80;;;14.80;99.90;;;;;;5068323;28;20132;-80
2020/12/18 11:58:14;;;;;;;3.75;1.35;;;15.00;99.90;;;;;;5066823;28;20029;-79
2020/12/18 12:00:42;;;;;;;1.40;0.90;;;15.30;99.90;;;;;;5066080;28;20036;-81
2020/12/18 12:03:08;;;;;;;1.95;1.30;;;15.50;99.90;;;;;;5066460;28;20079;-80
2020/12/18 12:05:35;;;;;;;4.28;1.48;;;15.70;99.90;;;;;;5066799;28;20040;-80
2020/12/18 12:08:01;;;;;;;5.07;1.35;;;15.70;99.90;;;;;;5066519;28;20027;-77
2020/12/18 12:10:28;;;;;;;2.88;1.20;;;15.60;99.90;;;;;;5066452;28;20049;-81
2020/12/18 12:12:54;;;;;;;4.45;1.63;;;15.70;99.90;;;;;;5067718;28;20124;-80
2020/12/18 12:15:20;;;;;;;7.75;1.85;;;15.70;99.90;;;;;;5067879;28;20052;-79
2020/12/18 12:17:46;;;;;;;2.08;1.38;;;15.90;99.90;;;;;;5066348;28;20029;-78
2020/12/18 12:20:12;;;;;;;2.63;1.23;;;15.70;99.90;;;;;;5066515;28;20485;-77
2020/12/18 12:22:38;;;;;;;3.33;1.20;;;15.90;99.90;;;;;;5067682;28;20021;-79
2020/12/18 12:25:04;;;;;;;2.40;1.08;;;16.00;99.90;;;;;;5067792;28;20027;-78
2020/12/18 12:27:29;;;;;;;1.60;1.08;;;16.00;99.90;;;;;;5066143;28;20044;-78
2020/12/18 12:29:55;;;;;;;1.38;0.80;;;16.10;99.90;;;;;;5067358;28;20021;-79
2020/12/18 12:32:22;;;;;;;2.25;1.00;;;16.30;99.90;;;;;;5067565;28;20147;-76
2020/12/18 12:34:49;;;;;;;6.85;1.00;;;;;;;;;;5067469;28;20089;-77
2020/12/18 12:37:15;;;;;;;4.72;1.55;;;;;;;;;;5066294;28;20110;-80
2020/12/18 12:39:41;;;;;;;1.70;1.10;;;;;;;;;;5066068;28;20463;-76
2020/12/18 12:42:07;;;;;;;2.97;1.58;;;;;;;;;;5067450;28;20460;-76
2020/12/18 12:44:34;;;;;;;2.45;1.05;;;;;;;;;;5065903;28;20017;-77
2020/12/18 12:47:00;;;;;;;3.30;1.13;;;;;;;;;;5065539;28;20024;-77
2020/12/18 12:49:26;;;;;;;2.13;1.20;;;16.40;99.90;;;;;;5065760;28;20021;-76
2020/12/18 12:51:56;;;;;;;1.98;1.10;;;15.50;99.90;;;;;;5067500;28;20028;-78
2020/12/18 12:54:22;;;;;;;4.78;1.20;;;14.80;99.90;;;;;;5067318;28;20044;-77
2020/12/18 12:56:48;;;;;;;1.13;0.90;;;14.20;99.90;;;;;;5066119;28;20029;-81
2020/12/18 12:59:14;;;;;;;2.13;1.30;;;13.70;99.90;;;;;;5065165;28;20103;-76
2020/12/18 13:01:40;;;;;;;1.77;1.08;;;13.30;99.90;;;;;;5067025;28;20459;-79
2020/12/18 13:04:06;;;;;;;1.52;0.80;;;13.00;99.90;;;;;;5064975;28;20056;-79
2020/12/18 13:06:32;;;;;;;2.05;0.95;;;12.70;99.90;;;;;;5065756;28;20020;-77